Time;durP1;ratioP1;P1;durP2;ratioP2;P2;SDS_P1;SDS_P2;PMS_P1;PMS_P2;Temp;Humidity;BMP_temperature;BMP_pressure;BME280_temperature;BME280_humidity;BME280_pressure;Samples;Min_cycle;Max_cycle;Signal;HPM_P1;HPM_P2
2024/02/27 00:21:58;;;;;;;;;;;12.20;99.90;;;;;;5142166;23;19913;-79
2024/02/27 00:24:24;;;;;;;;;;;12.30;99.90;;;;;;4981625;28;19933;-78
2024/02/27 00:26:50;;;;;;;;;;;12.30;99.90;;;;;;4981071;28;19894;-79
2024/02/27 01:08:06;;;;;;;;;;;11.20;99.90;;;;;;5380968;23;19906;-79
2024/02/27 01:10:31;;;;;;;;;;;11.10;99.90;;;;;;4947478;28;19922;-79
2024/02/27 01:12:57;;;;;;;;;;;11.10;99.90;;;;;;4978976;28;19895;-78
2024/02/27 01:15:24;;;;;;;;;;;11.30;99.90;;;;;;4962499;29;19897;-79
2024/02/27 01:17:50;;;;;;;;;;;11.00;99.90;;;;;;4979712;28;19895;-79
2024/02/27 01:20:16;;;;;;;;;;;10.70;99.90;;;;;;4962889;29;19973;-79
2024/02/27 01:22:41;;;;;;;;;;;10.90;99.90;;;;;;4961338;29;19922;-78
2024/02/27 01:25:08;;;;;;;;;;;10.80;99.90;;;;;;4979245;29;19917;-79
2024/02/27 01:27:35;;;;;;;;;;;10.70;99.90;;;;;;4978788;28;19901;-80
2024/02/27 01:30:01;;;;;;;;;;;10.80;99.90;;;;;;4978387;28;19977;-79
2024/02/27 01:32:26;;;;;;;;;;;10.70;99.90;;;;;;4963379;28;19914;-80
2024/02/27 01:55:35;;;;;;;;;;;10.30;99.90;;;;;;5801493;23;19922;-80
2024/02/27 01:58:01;;;;;;;;;;;10.20;99.90;;;;;;4960015;28;19923;-78
2024/02/27 02:00:27;;;;;;;;;;;10.30;99.90;;;;;;4959808;28;19980;-80
2024/02/27 02:02:52;;;;;;;;;;;10.20;99.90;;;;;;4957783;29;19954;-79
2024/02/27 02:10:29;;;;;;;;;;;10.20;99.90;;;;;;5468281;23;19906;-79
2024/02/27 02:15:29;;;;;;;;;;;10.10;99.90;;;;;;5390347;23;19926;-78
2024/02/27 02:17:55;;;;;;;;;;;10.20;99.90;;;;;;4972868;29;19949;-78
2024/02/27 02:20:21;;;;;;;;;;;10.30;99.90;;;;;;4958557;29;19897;-78
2024/02/27 02:22:47;;;;;;;;;;;10.30;99.90;;;;;;4958052;29;19956;-78
2024/02/27 02:25:13;;;;;;;;;;;10.20;99.90;;;;;;4958035;29;19914;-79
2024/02/27 02:27:42;;;;;;;;;;;10.40;99.90;;;;;;4957214;29;19917;-79
2024/02/27 03:01:13;;;;;;;;;;;11.00;99.90;;;;;;4917092;26;19919;-79
2024/02/27 03:06:13;;;;;;;;;;;11.10;99.90;;;;;;5512430;23;19914;-79
2024/02/27 03:39:41;;;;;;;;;;;11.10;99.90;;;;;;4974404;29;19926;-79
2024/02/27 03:42:07;;;;;;;;;;;11.00;99.90;;;;;;4978046;29;19899;-79
2024/02/27 03:44:32;;;;;;;;;;;10.90;99.90;;;;;;4962023;29;19906;-80
2024/02/27 03:49:33;;;;;;;;;;;10.80;99.90;;;;;;5412229;23;19907;-79
2024/02/27 03:51:59;;;;;;;;;;;10.70;99.90;;;;;;4962232;28;19901;-79
2024/02/27 03:54:25;;;;;;;;;;;10.60;99.90;;;;;;4964346;29;19930;-80
2024/02/27 03:56:50;;;;;;;;;;;10.80;99.90;;;;;;4964238;28;19894;-79
2024/02/27 04:01:58;;;;;;;;;;;10.80;99.90;;;;;;5256180;23;19922;-80
2024/02/27 04:04:24;;;;;;;;;;;10.90;99.90;;;;;;4977856;28;19915;-79
2024/02/27 04:06:49;;;;;;;;;;;11.10;99.90;;;;;;4955168;28;19957;-80
2024/02/27 04:09:15;;;;;;;;;;;11.10;99.90;;;;;;4964281;28;19963;-79
2024/02/27 04:11:41;;;;;;;;;;;11.10;99.90;;;;;;4976502;28;19954;-79
2024/02/27 04:14:06;;;;;;;;;;;11.20;99.90;;;;;;4964259;28;19934;-80
2024/02/27 04:16:32;;;;;;;;;;;11.20;99.90;;;;;;4961935;28;19930;-79
2024/02/27 04:18:57;;;;;;;;;;;11.20;99.90;;;;;;4981050;28;19901;-82
2024/02/27 04:21:23;;;;;;;;;;;11.30;99.90;;;;;;4958082;28;19911;-79
2024/02/27 05:06:54;;;;;;;;;;;12.10;99.90;;;;;;5790948;23;19930;-80
2024/02/27 05:14:30;;;;;;;;;;;11.90;99.90;;;;;;6034889;23;19917;-80
2024/02/27 05:16:56;;;;;;;;;;;11.70;99.90;;;;;;4979397;28;19946;-79
2024/02/27 06:03:23;;;;;;;;;;;11.90;99.90;;;;;;4257387;26;19966;-80
2024/02/27 06:05:50;;;;;;;;;;;11.90;99.90;;;;;;4958264;28;19910;-80
2024/02/27 06:28:58;;;;;;;;;;;12.10;99.90;;;;;;5185121;23;19906;-81
2024/02/27 06:52:07;;;;;;;;;;;12.70;99.90;;;;;;5008093;23;19907;-79
2024/02/27 07:33:23;;;;;;;;;;;13.50;99.00;;;;;;3197028;26;19986;-78
2024/02/27 07:35:50;;;;;;;;;;;13.60;99.20;;;;;;4965928;28;19906;-78
2024/02/27 07:38:16;;;;;;;;;;;13.60;99.50;;;;;;4979676;28;19895;-78
2024/02/27 07:48:28;;;;;;;;;;;13.80;97.90;;;;;;5757533;23;19906;-79
2024/02/27 07:50:53;;;;;;;;;;;14.00;96.60;;;;;;4985138;28;19918;-80
2024/02/27 07:58:30;;;;;;;;;;;13.90;96.30;;;;;;5628842;23;19921;-78
2024/02/27 08:00:55;;;;;;;;;;;14.00;95.60;;;;;;4964104;28;19915;-77
2024/02/27 08:24:12;;;;;;;;;;;16.70;83.50;;;;;;5074556;23;19965;-88
2024/02/27 08:26:38;;;;;;;;;;;17.40;79.50;;;;;;4952934;29;19954;-87
2024/02/27 08:29:04;;;;;;;;;;;18.00;74.50;;;;;;4937270;29;19910;-88
2024/02/27 08:31:30;;;;;;;;;;;18.10;70.60;;;;;;4954161;29;19911;-89
2024/02/27 08:33:56;;;;;;;;;;;18.10;69.50;;;;;;4936915;29;19945;-89
2024/02/27 08:36:24;;;;;;;;;;;18.10;69.50;;;;;;4953101;29;19910;-90
2024/02/27 08:38:50;;;;;;;;;;;17.90;68.00;;;;;;4938094;28;19911;-88
2024/02/27 08:41:20;;;;;;;;;;;18.10;67.40;;;;;;4958995;29;19910;-88
2024/02/27 08:43:46;;;;;;;;;;;18.00;67.90;;;;;;4937466;29;20029;-87
2024/02/27 08:46:17;;;;;;;;;;;18.00;69.50;;;;;;4955330;29;20045;-90
2024/02/27 08:48:44;;;;;;;;;;;18.00;67.70;;;;;;4956088;29;20004;-88
2024/02/27 08:51:09;;;;;;;;;;;18.00;66.50;;;;;;4937431;29;20363;-88
2024/02/27 08:53:35;;;;;;;;;;;17.90;66.10;;;;;;4939492;29;19906;-90
2024/02/27 08:56:00;;;;;;;;;;;17.90;68.50;;;;;;4935953;28;19907;-88
2024/02/27 08:58:26;;;;;;;;;;;18.00;67.70;;;;;;4953341;29;19906;-86
2024/02/27 09:00:51;;;;;;;;;;;18.00;66.10;;;;;;4936195;29;19910;-88
2024/02/27 09:03:17;;;;;;;;;;;17.80;65.70;;;;;;4936145;29;20331;-89
2024/02/27 09:05:43;;;;;;;;;;;17.70;65.80;;;;;;4953665;29;20009;-89
2024/02/27 09:08:09;;;;;;;;;;;17.60;67.30;;;;;;4953503;29;19993;-89
2024/02/27 09:10:34;;;;;;;;;;;17.70;67.90;;;;;;4953317;29;19997;-89
2024/02/27 09:13:00;;;;;;;;;;;17.80;66.20;;;;;;4953680;29;19997;-87
2024/02/27 09:15:25;;;;;;;;;;;17.90;66.40;;;;;;4936235;29;19938;-87
2024/02/27 09:17:51;;;;;;;;;;;17.90;66.50;;;;;;4936027;29;19916;-88
2024/02/27 09:20:16;;;;;;;;;;;17.80;67.70;;;;;;4935908;29;19910;-89
2024/02/27 09:22:42;;;;;;;;;;;17.80;67.70;;;;;;4953100;29;19926;-89
2024/02/27 09:25:08;;;;;;;;;;;17.90;65.50;;;;;;4936118;29;19914;-87
2024/02/27 09:27:35;;;;;;;;;;;17.90;65.20;;;;;;4935861;29;19910;-87
2024/02/27 09:30:01;;;;;;;;;;;18.00;65.70;;;;;;4935980;29;19910;-85
2024/02/27 09:32:26;;;;;;;;;;;18.00;65.60;;;;;;4935920;29;19910;-88
2024/02/27 09:34:52;;;;;;;;;;;18.00;64.50;;;;;;4935761;29;19936;-87
2024/02/27 09:37:22;;;;;;;;;;;17.70;65.60;;;;;;4936124;29;19949;-88
2024/02/27 09:39:47;;;;;;;;;;;17.70;67.00;;;;;;4935967;29;19950;-86
2024/02/27 09:42:13;;;;;;;;;;;17.50;67.20;;;;;;4952955;29;19950;-88
2024/02/27 09:44:40;;;;;;;;;;;17.30;67.60;;;;;;4936498;29;19910;-87
2024/02/27 09:47:06;;;;;;;;;;;17.40;68.10;;;;;;4936595;29;20295;-88
2024/02/27 09:49:36;;;;;;;;;;;17.40;67.90;;;;;;4935676;29;19921;-88
2024/02/27 09:52:02;;;;;;;;;;;17.30;68.00;;;;;;4936163;29;19914;-86
2024/02/27 09:54:28;;;;;;;;;;;17.20;67.40;;;;;;4936123;29;19906;-81
2024/02/27 09:56:54;;;;;;;;;;;17.40;69.00;;;;;;4953068;29;19930;-89
2024/02/27 09:59:20;;;;;;;;;;;17.50;67.90;;;;;;4935748;29;19910;-87
2024/02/27 10:01:47;;;;;;;;;;;17.50;67.50;;;;;;4953250;29;20373;-83
2024/02/27 10:04:12;;;;;;;;;;;17.30;68.70;;;;;;4953507;29;19918;-87
2024/02/27 10:06:38;;;;;;;;;;;17.30;69.90;;;;;;4955011;29;19914;-85
2024/02/27 10:09:05;;;;;;;;;;;17.50;68.50;;;;;;4938057;29;20005;-85
2024/02/27 10:14:46;;;;;;;;;;;17.20;69.10;;;;;;4828102;26;19955;-89
2024/02/27 10:17:11;;;;;;;;;;;17.30;69.80;;;;;;4920795;29;19913;-87
2024/02/27 10:19:37;;;;;;;;;;;17.30;69.50;;;;;;4933895;29;19907;-88
2024/02/27 10:22:03;;;;;;;;;;;17.30;68.70;;;;;;4933652;29;19917;-88
2024/02/27 10:24:29;;;;;;;;;;;17.20;69.10;;;;;;4916664;29;20351;-88
2024/02/27 10:26:56;;;;;;;;;;;17.40;68.60;;;;;;4916421;29;19990;-87
2024/02/27 10:29:26;;;;;;;;;;;17.60;67.00;;;;;;4919257;29;19937;-85
2024/02/27 10:31:52;;;;;;;;;;;17.30;67.90;;;;;;4929741;29;19995;-82
2024/02/27 10:34:18;;;;;;;;;;;17.10;69.50;;;;;;4946452;29;20332;-82
2024/02/27 10:36:44;;;;;;;;;;;17.10;70.90;;;;;;4934835;29;20323;-83
2024/02/27 10:39:10;;;;;;;;;;;17.00;72.40;;;;;;4954580;28;19901;-80
2024/02/27 10:49:22;;;;;;;;;;;16.50;73.60;;;;;;5620468;23;19922;-79
2024/02/27 10:56:58;;;;;;;;;;;15.90;74.50;;;;;;5652895;23;20828;-79
2024/02/27 11:04:36;;;;;;;;;;;16.10;77.00;;;;;;4853512;26;19914;-81
2024/02/27 11:09:37;;;;;;;;;;;16.20;75.30;;;;;;6023398;23;20674;-79
2024/02/27 11:12:03;;;;;;;;;;;16.10;75.80;;;;;;4976414;28;19966;-79
2024/02/27 11:30:01;;;;;;;;;;;15.90;77.30;;;;;;5424024;23;19945;-77
2024/02/27 11:58:21;;;;;;;;;;;16.30;78.60;;;;;;4640380;26;19926;-79
2024/02/27 12:03:22;;;;;;;;;;;16.30;78.00;;;;;;5381618;23;19912;-84
2024/02/27 12:05:49;;;;;;;;;;;16.30;76.60;;;;;;4965343;28;19938;-83
2024/02/27 12:08:16;;;;;;;;;;;16.30;77.30;;;;;;5117661;23;19945;-79
2024/02/27 12:10:42;;;;;;;;;;;16.30;76.80;;;;;;4963970;28;19927;-79
2024/02/27 12:13:08;;;;;;;;;;;16.20;77.10;;;;;;4961496;29;19906;-79
2024/02/27 12:15:33;;;;;;;;;;;16.10;77.40;;;;;;4962897;28;19921;-79
2024/02/27 12:23:13;;;;;;;;;;;16.40;77.40;;;;;;5242364;23;19946;-80
2024/02/27 12:25:42;;;;;;;;;;;16.40;76.30;;;;;;4963061;28;19898;-78
2024/02/27 12:33:20;;;;;;;;;;;16.30;75.70;;;;;;5514440;23;19922;-79
2024/02/27 12:35:45;;;;;;;;;;;16.30;76.00;;;;;;4962727;29;19904;-79
2024/02/27 12:38:11;;;;;;;;;;;16.40;75.70;;;;;;4965231;28;19941;-79
2024/02/27 12:51:00;;;;;;;;;;;16.50;75.40;;;;;;5085126;23;19922;-80
2024/02/27 12:53:26;;;;;;;;;;;16.50;75.30;;;;;;4978921;28;19915;-79
2024/02/27 13:01:04;;;;;;;;;;;16.50;76.00;;;;;;5082657;23;19941;-79
2024/02/27 13:03:30;;;;;;;;;;;16.60;75.80;;;;;;4981064;28;19914;-81
2024/02/27 13:05:55;;;;;;;;;;;16.80;75.40;;;;;;4978758;29;19926;-79
2024/02/27 13:08:21;;;;;;;;;;;16.80;75.40;;;;;;4979310;28;19901;-80
2024/02/27 13:10:46;;;;;;;;;;;16.70;75.30;;;;;;5007830;23;19927;-82
2024/02/27 13:13:13;;;;;;;;;;;16.90;74.00;;;;;;4959001;28;19925;-80
2024/02/27 13:15:49;;;;;;;;;;;16.90;74.00;;;;;;4960650;28;19911;-79
2024/02/27 13:18:14;;;;;;;;;;;16.90;75.60;;;;;;4956710;28;19917;-82
2024/02/27 13:20:40;;;;;;;;;;;16.90;76.30;;;;;;4954325;28;19914;-82
2024/02/27 13:23:06;;;;;;;;;;;17.00;75.10;;;;;;4945859;29;19989;-82
2024/02/27 13:25:32;;;;;;;;;;;17.00;75.60;;;;;;4957551;28;19984;-78
2024/02/27 13:27:57;;;;;;;;;;;17.10;74.90;;;;;;4961168;28;19894;-80
2024/02/27 13:30:24;;;;;;;;;;;17.10;73.80;;;;;;5076219;23;19945;-82
2024/02/27 13:35:24;;;;;;;;;;;17.10;74.50;;;;;;5077732;23;19914;-85
2024/02/27 13:37:50;;;;;;;;;;;17.10;75.10;;;;;;4956951;29;19918;-84
2024/02/27 13:40:16;;;;;;;;;;;17.10;74.30;;;;;;4962848;28;19923;-81
2024/02/27 13:50:27;;;;;;;;;;;17.20;73.90;;;;;;5182130;23;19928;-84
2024/02/27 13:52:53;;;;;;;;;;;17.10;73.90;;;;;;4962192;28;19946;-80
2024/02/27 13:55:18;;;;;;;;;;;17.20;72.60;;;;;;5042886;23;19907;-81
2024/02/27 13:57:44;;;;;;;;;;;17.10;72.80;;;;;;4979727;28;19945;-81
2024/02/27 14:00:10;;;;;;;;;;;17.10;73.00;;;;;;4960820;29;19910;-81
2024/02/27 14:02:35;;;;;;;;;;;17.00;74.30;;;;;;4960502;29;19895;-80
2024/02/27 14:05:01;;;;;;;;;;;17.00;73.80;;;;;;4962123;29;19910;-80
2024/02/27 14:07:26;;;;;;;;;;;17.00;73.70;;;;;;4963026;28;19894;-81
2024/02/27 14:09:52;;;;;;;;;;;16.90;74.70;;;;;;4978466;28;19911;-80
2024/02/27 14:12:21;;;;;;;;;;;17.00;74.30;;;;;;5240745;23;19908;-83
2024/02/27 14:14:47;;;;;;;;;;;17.00;75.60;;;;;;4954768;29;19921;-84
2024/02/27 14:17:12;;;;;;;;;;;16.90;75.70;;;;;;4957001;29;20357;-83
2024/02/27 14:19:39;;;;;;;;;;;16.90;76.10;;;;;;4961237;28;19925;-80
2024/02/27 14:24:40;;;;;;;;;;;16.90;75.10;;;;;;5047026;23;19907;-80
2024/02/27 14:40:35;;;;;;;;;;;16.80;75.70;;;;;;5056264;23;19907;-82
2024/02/27 14:43:02;;;;;;;;;;;16.80;76.10;;;;;;4971815;29;19919;-84
2024/02/27 14:45:27;;;;;;;;;;;16.80;76.60;;;;;;4957839;29;19906;-78
2024/02/27 14:47:53;;;;;;;;;;;16.80;75.60;;;;;;4987758;23;19954;-82
2024/02/27 14:50:19;;;;;;;;;;;16.80;75.80;;;;;;4955089;28;19891;-79
2024/02/27 14:52:44;;;;;;;;;;;16.80;76.30;;;;;;4958845;29;19906;-79
2024/02/27 14:55:10;;;;;;;;;;;16.80;75.30;;;;;;4962562;28;19895;-79
2024/02/27 15:00:11;;;;;;;;;;;16.60;76.90;;;;;;5148572;23;19955;-79
2024/02/27 15:02:37;;;;;;;;;;;16.60;76.50;;;;;;4962346;28;19923;-79
2024/02/27 15:05:02;;;;;;;;;;;16.50;77.10;;;;;;4961840;28;19957;-81
2024/02/27 15:07:28;;;;;;;;;;;16.50;77.90;;;;;;4962837;28;19915;-87
2024/02/27 15:09:53;;;;;;;;;;;16.40;78.30;;;;;;4963094;29;19933;-89
2024/02/27 15:22:40;;;;;;;;;;;16.30;77.90;;;;;;4982565;23;19907;-78
2024/02/27 15:25:06;;;;;;;;;;;16.30;78.50;;;;;;4978211;28;19914;-78
2024/02/27 15:27:32;;;;;;;;;;;16.10;79.00;;;;;;5232866;23;19962;-79
2024/02/27 15:29:57;;;;;;;;;;;16.10;79.10;;;;;;4961353;28;19918;-78
2024/02/27 15:32:23;;;;;;;;;;;16.00;79.80;;;;;;4956633;29;19897;-78
2024/02/27 15:34:49;;;;;;;;;;;15.90;80.00;;;;;;4956557;29;19950;-79
2024/02/27 15:37:14;;;;;;;;;;;15.80;80.70;;;;;;4954850;29;19907;-79
2024/02/27 15:39:40;;;;;;;;;;;15.70;80.90;;;;;;4961235;28;19895;-80
2024/02/27 15:42:06;;;;;;;;;;;15.80;82.10;;;;;;4952619;29;19890;-79
2024/02/27 15:44:33;;;;;;;;;;;15.70;82.10;;;;;;4959362;28;19897;-79
2024/02/27 15:46:59;;;;;;;;;;;15.70;82.30;;;;;;4956806;29;19891;-79
2024/02/27 15:49:24;;;;;;;;;;;15.70;82.50;;;;;;4955841;28;19918;-79
2024/02/27 15:51:50;;;;;;;;;;;15.60;82.80;;;;;;4957292;29;19970;-79
2024/02/27 15:54:17;;;;;;;;;;;15.60;83.20;;;;;;4960742;28;19891;-79
2024/02/27 15:56:43;;;;;;;;;;;15.40;83.90;;;;;;4978242;28;19933;-80
2024/02/27 15:59:10;;;;;;;;;;;15.30;84.60;;;;;;4963576;28;19914;-79
2024/02/27 16:01:35;;;;;;;;;;;15.20;85.20;;;;;;4964879;28;19894;-79
2024/02/27 16:04:33;;;;;;;;;;;15.20;86.00;;;;;;4961952;28;19909;-79
2024/02/27 16:07:16;;;;;;;;;;;15.10;86.60;;;;;;4960361;29;19926;-79
2024/02/27 16:09:42;;;;;;;;;;;15.20;87.50;;;;;;4977526;29;19910;-79
2024/02/27 16:12:07;;;;;;;;;;;15.00;88.10;;;;;;4980003;28;19894;-79
2024/02/27 16:14:33;;;;;;;;;;;14.80;88.50;;;;;;4962546;29;19929;-79
2024/02/27 16:16:59;;;;;;;;;;;14.70;89.20;;;;;;4959766;28;20431;-80
2024/02/27 16:19:25;;;;;;;;;;;14.80;90.00;;;;;;4977942;29;19966;-79
2024/02/27 16:21:51;;;;;;;;;;;14.60;90.20;;;;;;4974785;28;19918;-79
2024/02/27 16:24:18;;;;;;;;;;;14.50;90.50;;;;;;4957676;29;19918;-78
2024/02/27 16:26:44;;;;;;;;;;;14.40;90.80;;;;;;4974642;29;19890;-79
2024/02/27 16:29:11;;;;;;;;;;;14.50;91.00;;;;;;4960834;28;19981;-78
2024/02/27 16:31:37;;;;;;;;;;;14.20;91.30;;;;;;4957243;29;19899;-78
2024/02/27 16:34:03;;;;;;;;;;;14.20;91.50;;;;;;4957178;29;19917;-78
2024/02/27 16:36:28;;;;;;;;;;;14.10;91.90;;;;;;4979686;28;19953;-79
2024/02/27 16:38:54;;;;;;;;;;;13.90;92.20;;;;;;4961416;29;19924;-79
2024/02/27 16:41:19;;;;;;;;;;;14.10;92.30;;;;;;4979017;28;19982;-78
2024/02/27 16:43:45;;;;;;;;;;;14.00;92.70;;;;;;4977345;29;19961;-79
2024/02/27 16:46:11;;;;;;;;;;;13.80;93.10;;;;;;4962924;29;19901;-79
2024/02/27 16:48:36;;;;;;;;;;;13.70;93.40;;;;;;4977742;28;19922;-79
2024/02/27 16:51:02;;;;;;;;;;;13.80;93.40;;;;;;4960469;29;19913;-80
2024/02/27 16:53:28;;;;;;;;;;;13.60;93.80;;;;;;4960727;29;19906;-79
2024/02/27 16:55:54;;;;;;;;;;;13.70;94.10;;;;;;4960131;29;19894;-79
2024/02/27 16:58:19;;;;;;;;;;;13.60;94.40;;;;;;4959528;29;19962;-78
2024/02/27 17:00:45;;;;;;;;;;;13.50;94.90;;;;;;4944299;29;20373;-79
2024/02/27 17:03:11;;;;;;;;;;;13.50;95.30;;;;;;4938990;29;19922;-78
2024/02/27 17:05:36;;;;;;;;;;;13.30;95.70;;;;;;4940217;29;19963;-79
2024/02/27 17:08:02;;;;;;;;;;;13.40;96.10;;;;;;4943395;29;19891;-79
2024/02/27 17:10:28;;;;;;;;;;;13.30;96.30;;;;;;4959074;29;19911;-79
2024/02/27 17:12:57;;;;;;;;;;;13.30;96.80;;;;;;4941264;28;19897;-79
2024/02/27 17:15:23;;;;;;;;;;;13.20;97.30;;;;;;4958151;29;19916;-78
2024/02/27 17:17:52;;;;;;;;;;;13.20;97.70;;;;;;4954953;29;19890;-79
2024/02/27 17:20:20;;;;;;;;;;;13.10;97.90;;;;;;4957857;29;19903;-79
2024/02/27 17:25:21;;;;;;;;;;;13.00;98.70;;;;;;4951679;28;19923;-79
2024/02/27 17:27:47;;;;;;;;;;;12.90;99.00;;;;;;4958611;28;19959;-79
2024/02/27 17:30:12;;;;;;;;;;;12.80;99.20;;;;;;4973995;29;19906;-79
2024/02/27 17:32:38;;;;;;;;;;;12.80;99.80;;;;;;4955691;29;19926;-77
2024/02/27 17:35:07;;;;;;;;;;;12.60;99.90;;;;;;4959291;28;19894;-79
2024/02/27 17:37:32;;;;;;;;;;;12.70;99.90;;;;;;4959829;28;19895;-79
2024/02/27 17:39:59;;;;;;;;;;;12.60;99.90;;;;;;4959352;29;19918;-78
2024/02/27 17:42:25;;;;;;;;;;;12.60;99.90;;;;;;4958290;28;19919;-79
2024/02/27 17:44:51;;;;;;;;;;;12.60;99.90;;;;;;4955094;29;19938;-80
2024/02/27 17:47:17;;;;;;;;;;;12.50;99.90;;;;;;4955662;29;19930;-79
2024/02/27 17:49:43;;;;;;;;;;;12.70;99.90;;;;;;4964392;29;19906;-78
2024/02/27 17:52:08;;;;;;;;;;;12.50;99.90;;;;;;4948834;29;19910;-79
2024/02/27 17:54:34;;;;;;;;;;;12.40;99.90;;;;;;4952859;29;19907;-80
2024/02/27 17:57:00;;;;;;;;;;;12.40;99.90;;;;;;4949510;29;19930;-79
2024/02/27 17:59:26;;;;;;;;;;;12.40;99.90;;;;;;4953003;29;19913;-79
2024/02/27 18:01:52;;;;;;;;;;;12.40;99.90;;;;;;4953040;29;19914;-79
2024/02/27 18:04:18;;;;;;;;;;;12.40;99.90;;;;;;4953931;29;20439;-79
2024/02/27 18:06:44;;;;;;;;;;;12.40;99.90;;;;;;4953689;29;19935;-79
2024/02/27 18:09:10;;;;;;;;;;;11.60;99.90;;;;;;4975329;28;19913;-80
2024/02/27 18:11:39;;;;;;;;;;;12.40;99.90;;;;;;4973442;28;19910;-78
2024/02/27 18:14:05;;;;;;;;;;;12.40;99.90;;;;;;4949352;29;19903;-78
2024/02/27 18:16:30;;;;;;;;;;;12.40;99.90;;;;;;4963585;29;19949;-77
2024/02/27 18:18:56;;;;;;;;;;;12.40;99.90;;;;;;4945820;29;19906;-79
2024/02/27 18:21:22;;;;;;;;;;;12.40;99.90;;;;;;4950115;29;19930;-79
2024/02/27 18:23:48;;;;;;;;;;;12.30;99.90;;;;;;4952695;29;19957;-79
2024/02/27 18:26:13;;;;;;;;;;;12.20;99.90;;;;;;4955963;29;19907;-80
2024/02/27 18:28:39;;;;;;;;;;;11.70;99.90;;;;;;4954499;28;19982;-79
2024/02/27 18:31:05;;;;;;;;;;;12.20;99.90;;;;;;4957976;29;19906;-79
2024/02/27 18:33:31;;;;;;;;;;;12.10;99.90;;;;;;4960553;28;19965;-79
2024/02/27 18:35:57;;;;;;;;;;;12.30;99.90;;;;;;4961104;28;19914;-79
2024/02/27 18:38:24;;;;;;;;;;;12.20;99.90;;;;;;4959828;29;19907;-79
2024/02/27 18:40:49;;;;;;;;;;;12.40;99.90;;;;;;4950334;29;19914;-78
2024/02/27 18:43:15;;;;;;;;;;;12.40;99.90;;;;;;4952816;29;19926;-79
2024/02/27 18:45:40;;;;;;;;;;;12.50;99.90;;;;;;4949500;29;19935;-78
2024/02/27 18:48:06;;;;;;;;;;;12.60;99.90;;;;;;4947153;29;19930;-79
2024/02/27 18:50:33;;;;;;;;;;;12.60;99.90;;;;;;4952286;29;19913;-78
2024/02/27 18:53:04;;;;;;;;;;;12.60;99.90;;;;;;4951686;29;19938;-79
2024/02/27 18:55:30;;;;;;;;;;;12.60;99.90;;;;;;4955425;29;19907;-78
2024/02/27 18:57:57;;;;;;;;;;;12.60;99.90;;;;;;4954373;29;19914;-79
2024/02/27 19:00:22;;;;;;;;;;;12.60;99.90;;;;;;4952994;29;19910;-79
2024/02/27 19:02:48;;;;;;;;;;;12.60;99.90;;;;;;4958603;29;19985;-78
2024/02/27 19:05:13;;;;;;;;;;;12.50;99.90;;;;;;4959140;29;19950;-79
2024/02/27 19:07:40;;;;;;;;;;;12.50;99.90;;;;;;4957718;29;19910;-79
2024/02/27 19:10:07;;;;;;;;;;;12.50;99.90;;;;;;4958500;29;19902;-78
2024/02/27 19:12:32;;;;;;;;;;;12.50;99.90;;;;;;4953218;29;19950;-79
2024/02/27 19:14:58;;;;;;;;;;;12.50;99.90;;;;;;4956713;29;19913;-77
2024/02/27 19:17:23;;;;;;;;;;;12.50;99.90;;;;;;4948550;29;19906;-79
2024/02/27 19:19:49;;;;;;;;;;;12.50;99.90;;;;;;4956513;29;20365;-79
2024/02/27 19:22:15;;;;;;;;;;;12.50;99.90;;;;;;4957590;29;19914;-78
2024/02/27 19:24:40;;;;;;;;;;;12.50;99.90;;;;;;4956097;29;19922;-79
2024/02/27 19:27:07;;;;;;;;;;;12.50;99.90;;;;;;4954039;29;19910;-78
2024/02/27 19:29:33;;;;;;;;;;;12.50;99.90;;;;;;4951184;29;19945;-79
2024/02/27 19:31:59;;;;;;;;;;;12.50;99.90;;;;;;4952988;29;19911;-80
2024/02/27 19:34:24;;;;;;;;;;;12.50;99.90;;;;;;4951793;29;19907;-78
2024/02/27 19:36:50;;;;;;;;;;;12.50;99.90;;;;;;4951667;29;20407;-79
2024/02/27 19:39:15;;;;;;;;;;;12.50;99.90;;;;;;4954987;29;19915;-78
2024/02/27 19:41:41;;;;;;;;;;;12.60;99.90;;;;;;4954836;29;19978;-79
2024/02/27 19:44:06;;;;;;;;;;;12.70;99.90;;;;;;4956916;29;20352;-79
2024/02/27 19:46:33;;;;;;;;;;;12.70;99.90;;;;;;4954416;29;19911;-79
2024/02/27 19:48:58;;;;;;;;;;;12.80;99.90;;;;;;4956997;29;19907;-80
2024/02/27 19:51:24;;;;;;;;;;;12.80;99.90;;;;;;4958352;29;19942;-79
2024/02/27 19:53:52;;;;;;;;;;;12.90;99.90;;;;;;4955674;29;19954;-79
2024/02/27 19:56:18;;;;;;;;;;;12.80;99.90;;;;;;4959152;28;19955;-79
2024/02/27 19:58:43;;;;;;;;;;;12.80;99.90;;;;;;4959436;29;19910;-79
2024/02/27 20:01:12;;;;;;;;;;;12.90;99.90;;;;;;4955761;29;19976;-79
2024/02/27 20:03:38;;;;;;;;;;;12.80;99.90;;;;;;4955339;29;19910;-79
2024/02/27 20:06:03;;;;;;;;;;;12.80;99.90;;;;;;4953840;29;19930;-79
2024/02/27 20:08:29;;;;;;;;;;;12.70;99.90;;;;;;4952392;29;19965;-79
2024/02/27 20:10:54;;;;;;;;;;;12.60;99.90;;;;;;4959328;29;20269;-80
2024/02/27 20:13:21;;;;;;;;;;;12.60;99.90;;;;;;4955155;29;20501;-79
2024/02/27 20:15:47;;;;;;;;;;;12.60;99.90;;;;;;4954440;29;19913;-79
2024/02/27 20:18:12;;;;;;;;;;;12.70;99.90;;;;;;4951787;29;19907;-78
2024/02/27 20:20:38;;;;;;;;;;;12.80;99.90;;;;;;4948418;29;19940;-78
2024/02/27 20:25:39;;;;;;;;;;;12.80;99.90;;;;;;5051852;23;19922;-79
2024/02/27 20:28:08;;;;;;;;;;;12.60;99.90;;;;;;4976734;29;19914;-78
2024/02/27 20:30:34;;;;;;;;;;;12.60;99.90;;;;;;4976582;29;19898;-79
2024/02/27 20:33:00;;;;;;;;;;;12.50;99.90;;;;;;4972947;29;19954;-78
2024/02/27 20:35:26;;;;;;;;;;;12.50;99.90;;;;;;4958023;28;19918;-79
2024/02/27 20:37:53;;;;;;;;;;;12.40;99.90;;;;;;4975477;28;19910;-79
2024/02/27 20:40:22;;;;;;;;;;;12.40;99.90;;;;;;4978150;29;19930;-78
2024/02/27 20:42:48;;;;;;;;;;;12.50;99.90;;;;;;4979124;28;19918;-79
2024/02/27 20:45:14;;;;;;;;;;;12.50;99.90;;;;;;4962210;28;19906;-79
2024/02/27 20:47:44;;;;;;;;;;;12.40;99.90;;;;;;4962845;28;19907;-80
2024/02/27 20:50:11;;;;;;;;;;;12.50;99.90;;;;;;4977181;28;19969;-79
2024/02/27 20:52:36;;;;;;;;;;;12.50;99.90;;;;;;4979612;28;19914;-79
2024/02/27 21:00:06;;;;;;;;;;;12.50;99.90;;;;;;4954314;28;19907;-79
2024/02/27 21:02:32;;;;;;;;;;;12.50;99.90;;;;;;4960441;28;19907;-79
2024/02/27 21:04:57;;;;;;;;;;;12.60;99.90;;;;;;4941088;29;19930;-79
2024/02/27 21:07:24;;;;;;;;;;;12.60;99.90;;;;;;4938100;29;19997;-79
2024/02/27 21:09:49;;;;;;;;;;;12.50;99.90;;;;;;4935799;29;19929;-79
2024/02/27 21:12:15;;;;;;;;;;;12.40;99.90;;;;;;4943374;29;20443;-78
2024/02/27 21:14:40;;;;;;;;;;;12.30;99.90;;;;;;4946657;29;19907;-78
2024/02/27 21:17:06;;;;;;;;;;;12.30;99.90;;;;;;4953485;29;19977;-79
2024/02/27 21:19:32;;;;;;;;;;;12.30;99.90;;;;;;4959008;28;19894;-80
2024/02/27 21:24:22;;;;;;;;;;;12.50;99.90;;;;;;5001836;23;19922;-79
2024/02/27 21:26:48;;;;;;;;;;;12.40;99.90;;;;;;4960647;28;19937;-79
2024/02/27 21:29:14;;;;;;;;;;;12.60;99.90;;;;;;4975663;29;19914;-79
2024/02/27 21:31:39;;;;;;;;;;;12.60;99.90;;;;;;4958937;29;19917;-78
2024/02/27 21:34:05;;;;;;;;;;;12.60;99.80;;;;;;4956948;29;19937;-79
2024/02/27 21:36:31;;;;;;;;;;;12.60;99.40;;;;;;4951296;29;19906;-78
2024/02/27 21:38:56;;;;;;;;;;;12.60;99.40;;;;;;4960246;29;19902;-79
2024/02/27 21:41:22;;;;;;;;;;;12.60;99.40;;;;;;4960772;29;19942;-78
2024/02/27 21:43:49;;;;;;;;;;;12.50;99.60;;;;;;4950016;29;20446;-79
2024/02/27 21:46:14;;;;;;;;;;;12.50;99.60;;;;;;4972569;28;19914;-79
2024/02/27 21:48:40;;;;;;;;;;;12.50;99.70;;;;;;4972434;29;19987;-80
2024/02/27 21:51:06;;;;;;;;;;;12.40;99.30;;;;;;4972204;29;19910;-79
2024/02/27 21:53:32;;;;;;;;;;;12.50;99.10;;;;;;4976527;29;19907;-79
2024/02/27 21:55:57;;;;;;;;;;;12.50;99.10;;;;;;4963108;28;19926;-79
2024/02/27 21:58:23;;;;;;;;;;;12.60;98.70;;;;;;4979862;28;19894;-80
2024/02/27 22:00:50;;;;;;;;;;;12.60;98.70;;;;;;4977472;28;19960;-79
2024/02/27 22:03:15;;;;;;;;;;;12.60;98.60;;;;;;4962388;28;19925;-79
2024/02/27 22:05:41;;;;;;;;;;;12.50;98.90;;;;;;4977054;29;19910;-78
2024/02/27 22:08:06;;;;;;;;;;;12.50;98.90;;;;;;4977656;28;19895;-79
2024/02/27 22:10:32;;;;;;;;;;;12.40;99.40;;;;;;4977063;29;19913;-78
2024/02/27 22:12:58;;;;;;;;;;;12.20;99.90;;;;;;4957479;29;19910;-78
2024/02/27 22:15:23;;;;;;;;;;;12.00;99.90;;;;;;4973306;29;19906;-79
2024/02/27 22:17:49;;;;;;;;;;;12.00;99.90;;;;;;4960015;29;19968;-78
2024/02/27 22:20:15;;;;;;;;;;;11.90;99.90;;;;;;4958252;29;19906;-79
2024/02/27 22:28:20;;;;;;;;;;;11.80;99.90;;;;;;4975425;29;19908;-79
2024/02/27 22:30:46;;;;;;;;;;;11.80;99.90;;;;;;4961736;28;19910;-78
2024/02/27 22:33:12;;;;;;;;;;;11.80;99.90;;;;;;4961500;28;20280;-79
2024/02/27 22:35:40;;;;;;;;;;;11.70;99.90;;;;;;4959403;29;19910;-78
2024/02/27 22:38:09;;;;;;;;;;;11.80;99.90;;;;;;4958340;29;19910;-79
2024/02/27 22:40:37;;;;;;;;;;;12.00;99.90;;;;;;4959735;29;19890;-78
2024/02/27 22:43:03;;;;;;;;;;;11.90;99.90;;;;;;4960946;29;19914;-78
2024/02/27 22:45:28;;;;;;;;;;;11.90;99.90;;;;;;4978250;28;19910;-79